createdAt,value
2023-01-07T00:01:35.164Z,20.28
2023-01-07T00:04:01.673Z,20.28
2023-01-07T00:06:33.114Z,20.28
2023-01-07T00:08:59.448Z,20.27
2023-01-07T00:11:26.639Z,20.26
2023-01-07T00:13:53.215Z,20.26
2023-01-07T00:16:20.390Z,20.25
2023-01-07T00:18:50.469Z,20.25
2023-01-07T00:21:17.102Z,20.24
2023-01-07T00:23:43.764Z,20.23
2023-01-07T00:26:10.770Z,20.23
2023-01-07T00:28:37.792Z,20.22
2023-01-07T00:31:05.113Z,20.20
2023-01-07T00:33:31.476Z,20.21
2023-01-07T00:36:01.780Z,20.21
2023-01-07T00:38:28.158Z,20.20
2023-01-07T00:40:54.486Z,20.20
2023-01-07T00:43:20.846Z,20.19
2023-01-07T00:45:47.166Z,20.18
2023-01-07T00:48:13.491Z,20.18
2023-01-07T00:50:42.731Z,20.18
2023-01-07T00:53:09.476Z,20.16
2023-01-07T00:55:35.805Z,20.16
2023-01-07T00:58:02.198Z,20.17
2023-01-07T01:00:28.582Z,20.16
2023-01-07T01:02:59.435Z,20.15
2023-01-07T01:05:25.792Z,20.15
2023-01-07T01:07:52.775Z,20.15
2023-01-07T01:10:19.292Z,20.15
2023-01-07T01:12:49.740Z,20.15
2023-01-07T01:15:16.370Z,20.13
2023-01-07T01:17:42.719Z,20.13
2023-01-07T01:20:11.019Z,20.12
2023-01-07T01:22:37.479Z,20.12
2023-01-07T01:25:07.112Z,20.12
2023-01-07T01:27:33.479Z,20.11
2023-01-07T01:29:59.828Z,20.13
2023-01-07T01:32:27.281Z,20.12
2023-01-07T01:34:54.226Z,20.11
2023-01-07T01:37:20.765Z,20.11
2023-01-07T01:39:48.010Z,20.11
2023-01-07T01:42:15.210Z,20.09
2023-01-07T01:44:53.924Z,20.08
2023-01-07T01:47:47.046Z,20.07
2023-01-07T01:50:24.869Z,20.10
2023-01-07T01:53:01.535Z,20.11
2023-01-07T01:55:30.712Z,20.08
2023-01-07T01:57:59.373Z,20.08
2023-01-07T02:00:25.771Z,20.07
2023-01-07T02:02:54.467Z,20.08
2023-01-07T02:05:20.879Z,20.06
2023-01-07T02:07:47.230Z,20.05
2023-01-07T02:10:15.437Z,20.05
2023-01-07T02:12:57.083Z,20.04
2023-01-07T02:15:32.308Z,20.04
2023-01-07T02:18:05.036Z,20.02
2023-01-07T02:20:31.312Z,20.03
2023-01-07T02:23:03.428Z,20.03
2023-01-07T02:25:42.095Z,20.00
2023-01-07T02:28:27.047Z,20.01
2023-01-07T02:30:53.317Z,20.02
2023-01-07T02:33:39.207Z,20.01
2023-01-07T02:36:08.173Z,20.00
2023-01-07T02:38:37.654Z,19.98
2023-01-07T02:41:14.147Z,19.99
2023-01-07T02:43:44.447Z,19.99
2023-01-07T02:46:18.155Z,19.97
2023-01-07T02:48:44.481Z,19.98
2023-01-07T02:51:10.833Z,19.97
2023-01-07T02:53:37.355Z,19.98
2023-01-07T02:56:06.824Z,19.97
2023-01-07T02:58:44.655Z,19.96
2023-01-07T03:05:29.310Z,19.95
2023-01-07T03:08:02.227Z,19.95
2023-01-07T03:10:38.047Z,19.94
2023-01-07T03:13:05.279Z,19.93
2023-01-07T03:15:34.517Z,19.94
2023-01-07T03:18:00.787Z,19.93
2023-01-07T03:20:27.097Z,19.93
2023-01-07T03:22:53.824Z,19.93
2023-01-07T03:25:20.672Z,19.92
2023-01-07T03:27:47.019Z,19.92
2023-01-07T03:30:13.894Z,19.91
2023-01-07T03:32:49.161Z,19.91
2023-01-07T03:35:15.495Z,19.91
2023-01-07T03:37:42.361Z,19.91
2023-01-07T03:40:10.627Z,19.92
2023-01-07T03:42:41.986Z,19.93
2023-01-07T03:45:14.305Z,19.95
2023-01-07T03:47:41.551Z,19.96
2023-01-07T03:50:08.082Z,19.99
2023-01-07T03:52:38.865Z,20.02
2023-01-07T03:55:05.451Z,20.02
2023-01-07T03:57:32.395Z,20.03
2023-01-07T04:00:01.088Z,20.03
2023-01-07T04:02:30.019Z,20.03
2023-01-07T04:04:56.993Z,20.03
2023-01-07T04:07:23.493Z,20.02
2023-01-07T04:09:50.780Z,20.02
2023-01-07T04:12:17.356Z,20.03
2023-01-07T04:14:44.550Z,20.05
2023-01-07T04:17:11.611Z,20.05
2023-01-07T04:19:38.665Z,20.05
2023-01-07T04:22:05.963Z,20.07
2023-01-07T04:24:33.144Z,20.09
2023-01-07T04:26:59.569Z,20.11
2023-01-07T04:29:26.035Z,20.11
2023-01-07T04:31:52.465Z,20.11
2023-01-07T04:34:19.236Z,20.09
2023-01-07T04:36:45.566Z,20.09
2023-01-07T04:39:12.502Z,20.09
2023-01-07T04:41:38.939Z,20.09
2023-01-07T04:44:05.600Z,20.08
2023-01-07T04:46:33.331Z,20.09
2023-01-07T04:48:59.734Z,20.09
2023-01-07T04:51:26.107Z,20.11
2023-01-07T04:53:52.603Z,20.11
2023-01-07T04:56:18.965Z,20.12
2023-01-07T04:58:46.613Z,20.12
2023-01-07T05:01:13.458Z,20.14
2023-01-07T05:03:40.089Z,20.14
2023-01-07T05:06:09.250Z,20.14
2023-01-07T05:08:37.315Z,20.14
2023-01-07T05:11:04.945Z,20.14
2023-01-07T05:13:32.139Z,20.14
2023-01-07T05:16:00.265Z,20.14
2023-01-07T05:18:26.829Z,20.12
2023-01-07T05:20:53.187Z,20.13
2023-01-07T05:23:19.665Z,20.14
2023-01-07T05:25:47.574Z,20.15
2023-01-07T05:28:13.928Z,20.16
2023-01-07T05:30:41.209Z,20.17
2023-01-07T05:33:07.747Z,20.17
2023-01-07T05:35:38.331Z,20.19
2023-01-07T05:38:05.623Z,20.17
2023-01-07T05:40:32.404Z,20.19
2023-01-07T05:42:58.768Z,20.18
2023-01-07T05:45:27.258Z,20.18
2023-01-07T05:47:53.574Z,20.17
2023-01-07T05:50:19.892Z,20.18
2023-01-07T05:52:46.287Z,20.17
2023-01-07T05:55:15.290Z,20.17
2023-01-07T05:57:41.626Z,20.18
2023-01-07T06:00:10.254Z,20.18
2023-01-07T06:02:39.307Z,20.18
2023-01-07T06:05:05.841Z,20.20
2023-01-07T06:07:32.220Z,20.19
2023-01-07T06:09:58.579Z,20.21
2023-01-07T06:12:24.956Z,20.20
2023-01-07T06:14:51.298Z,20.21
2023-01-07T06:17:17.644Z,20.21
2023-01-07T06:19:43.976Z,20.21
2023-01-07T06:22:10.297Z,20.21
2023-01-07T06:24:36.652Z,20.20
2023-01-07T06:27:02.975Z,20.20
2023-01-07T06:29:32.288Z,20.22
2023-01-07T06:31:58.617Z,20.21
2023-01-07T06:34:24.992Z,20.08
2023-01-07T06:36:51.366Z,19.95
2023-01-07T06:39:17.686Z,19.80
2023-01-07T06:41:44.015Z,19.70
2023-01-07T06:44:10.339Z,18.83
2023-01-07T06:46:36.711Z,19.15
2023-01-07T06:49:03.183Z,19.47
2023-01-07T06:51:29.512Z,19.75
2023-01-07T06:54:07.730Z,19.90
2023-01-07T06:56:34.055Z,20.01
2023-01-07T06:59:00.405Z,20.05
2023-01-07T07:01:26.857Z,20.07
2023-01-07T07:03:53.213Z,20.09
2023-01-07T07:06:19.539Z,20.07
2023-01-07T07:08:45.866Z,20.11
2023-01-07T07:11:12.230Z,20.13
2023-01-07T07:13:38.554Z,20.15
2023-01-07T07:16:04.977Z,20.15
2023-01-07T07:18:31.332Z,20.16
2023-01-07T07:20:58.661Z,20.16
2023-01-07T07:23:25.022Z,20.18
2023-01-07T07:25:51.341Z,20.17
2023-01-07T07:28:17.662Z,20.18
2023-01-07T07:30:47.204Z,19.66
2023-01-07T07:33:14.985Z,19.46
2023-01-07T07:35:41.415Z,19.81
2023-01-07T07:38:07.778Z,19.95
2023-01-07T07:40:34.104Z,20.13
2023-01-07T07:43:10.752Z,20.17
2023-01-07T07:45:38.939Z,20.24
2023-01-07T07:48:05.765Z,20.20
2023-01-07T07:50:32.114Z,20.18
2023-01-07T07:52:58.455Z,20.18
2023-01-07T07:55:26.276Z,20.18
2023-01-07T07:57:53.754Z,20.18
2023-01-07T08:00:20.075Z,20.18
2023-01-07T08:02:46.416Z,20.17
2023-01-07T08:05:12.794Z,20.17
2023-01-07T08:07:39.343Z,20.18
2023-01-07T08:10:05.935Z,20.16
2023-01-07T08:12:32.278Z,20.16
2023-01-07T08:14:58.615Z,20.16
2023-01-07T08:17:25.018Z,20.17
2023-01-07T08:19:51.367Z,20.16
2023-01-07T08:22:17.701Z,20.16
2023-01-07T08:24:44.044Z,20.17
2023-01-07T08:27:10.378Z,20.17
2023-01-07T08:29:36.727Z,20.18
2023-01-07T08:32:03.074Z,20.18
2023-01-07T08:34:29.407Z,20.20
2023-01-07T08:36:55.724Z,20.21
2023-01-07T08:39:22.064Z,20.21
2023-01-07T08:41:48.389Z,20.21
2023-01-07T08:44:14.762Z,20.21
2023-01-07T08:46:42.757Z,20.21
2023-01-07T08:49:09.813Z,20.21
2023-01-07T08:51:36.320Z,20.22
2023-01-07T08:54:02.660Z,20.21
2023-01-07T08:56:29.046Z,20.21
2023-01-07T08:58:55.383Z,20.20
2023-01-07T09:01:21.835Z,20.21
2023-01-07T09:03:48.219Z,20.22
2023-01-07T09:06:14.544Z,20.23
2023-01-07T09:08:41.021Z,20.22
2023-01-07T09:11:07.357Z,20.25
2023-01-07T09:13:33.678Z,20.25
2023-01-07T09:16:00.250Z,20.27
2023-01-07T09:18:26.627Z,20.26
2023-01-07T09:20:52.949Z,20.26
2023-01-07T09:23:19.331Z,20.26
2023-01-07T09:25:45.659Z,20.24
2023-01-07T09:28:12.013Z,20.27
2023-01-07T09:30:38.393Z,20.25
2023-01-07T09:33:04.727Z,20.25
2023-01-07T09:35:31.055Z,20.25
2023-01-07T09:37:57.405Z,20.26
2023-01-07T09:40:31.175Z,20.27
2023-01-07T09:42:58.875Z,20.28
2023-01-07T09:45:26.461Z,20.29
2023-01-07T09:47:59.679Z,20.31
2023-01-07T09:50:26.017Z,20.31
2023-01-07T09:52:53.565Z,20.31
2023-01-07T09:55:24.469Z,20.31
2023-01-07T09:57:50.811Z,20.31
2023-01-07T10:00:18.022Z,20.31
2023-01-07T10:02:53.519Z,20.31
2023-01-07T10:05:38.346Z,20.31
2023-01-07T10:08:29.788Z,20.31
2023-01-07T10:11:00.841Z,20.31
2023-01-07T10:13:45.666Z,20.31
2023-01-07T10:16:18.090Z,20.32
2023-01-07T10:18:53.658Z,20.33
2023-01-07T10:21:46.134Z,20.34
2023-01-07T10:24:28.602Z,20.34
2023-01-07T10:26:59.257Z,20.36
2023-01-07T10:29:28.484Z,20.35
2023-01-07T10:31:55.012Z,20.36
2023-01-07T10:34:25.123Z,20.35
2023-01-07T10:37:07.294Z,20.34
2023-01-07T10:39:38.598Z,20.35
2023-01-07T10:42:06.605Z,20.35
2023-01-07T10:44:51.916Z,20.35
2023-01-07T10:47:25.638Z,20.35
2023-01-07T10:50:10.659Z,20.34
2023-01-07T10:52:45.208Z,20.35
2023-01-07T10:55:29.607Z,20.34
2023-01-07T10:57:55.999Z,20.32
2023-01-07T11:00:22.331Z,20.34
2023-01-07T11:02:50.925Z,20.33
2023-01-07T11:05:24.074Z,20.32
2023-01-07T11:07:51.220Z,20.33
2023-01-07T11:10:24.361Z,20.32
2023-01-07T11:12:52.323Z,20.32
2023-01-07T11:15:20.421Z,20.32
2023-01-07T11:17:48.982Z,20.32
2023-01-07T11:20:19.524Z,20.30
2023-01-07T11:22:45.855Z,20.31
2023-01-07T11:25:22.254Z,20.30
2023-01-07T11:27:48.623Z,20.30
2023-01-07T11:30:21.838Z,20.31
2023-01-07T11:32:54.183Z,20.30
2023-01-07T11:35:22.727Z,20.31
2023-01-07T11:37:49.427Z,20.30
2023-01-07T11:40:15.696Z,20.31
2023-01-07T11:42:48.820Z,20.32
2023-01-07T11:45:21.302Z,20.33
2023-01-07T11:47:48.758Z,20.33
2023-01-07T11:50:21.748Z,20.34
2023-01-07T11:53:00.753Z,20.35
2023-01-07T11:55:27.096Z,20.35
2023-01-07T11:57:56.816Z,20.35
2023-01-07T12:00:31.489Z,20.35
2023-01-07T12:03:01.858Z,20.37
2023-01-07T12:05:28.235Z,20.37
2023-01-07T12:07:54.570Z,20.36
2023-01-07T12:10:24.547Z,20.36
2023-01-07T12:12:50.905Z,20.36
2023-01-07T12:15:20.870Z,20.36
2023-01-07T12:17:47.560Z,20.35
2023-01-07T12:20:25.901Z,20.34
2023-01-07T12:23:10.963Z,20.34
2023-01-07T12:25:37.232Z,20.33
2023-01-07T12:28:09.773Z,20.34
2023-01-07T12:30:55.042Z,20.34
2023-01-07T12:33:30.614Z,20.35
2023-01-07T12:36:01.307Z,20.37
2023-01-07T12:38:32.565Z,20.38
2023-01-07T12:41:00.288Z,20.39
2023-01-07T12:43:33.666Z,20.40
2023-01-07T12:46:00.875Z,20.42
2023-01-07T12:48:29.068Z,20.42
2023-01-07T12:50:55.649Z,20.45
2023-01-07T12:53:27.931Z,20.46
2023-01-07T12:55:58.479Z,20.47
2023-01-07T12:58:44.644Z,20.45
2023-01-07T13:01:19.490Z,20.47
2023-01-07T13:03:59.436Z,20.48
2023-01-07T13:06:42.652Z,20.48
2023-01-07T13:09:12.416Z,20.48
2023-01-07T13:12:01.437Z,20.48
2023-01-07T13:14:29.287Z,20.47
2023-01-07T13:16:59.106Z,20.50
2023-01-07T13:19:25.502Z,20.52
2023-01-07T13:21:51.837Z,20.51
2023-01-07T13:24:55.226Z,20.51
2023-01-07T13:27:20.733Z,20.49
2023-01-07T13:30:10.819Z,20.48
2023-01-07T13:32:40.002Z,20.48
2023-01-07T13:35:25.151Z,20.48
2023-01-07T13:37:55.519Z,20.48
2023-01-07T13:40:23.895Z,20.42
2023-01-07T13:42:59.328Z,20.46
2023-01-07T13:45:26.437Z,20.45
2023-01-07T13:47:56.869Z,20.46
2023-01-07T13:50:35.686Z,20.43
2023-01-07T13:53:03.176Z,20.44
2023-01-07T13:55:31.067Z,20.43
2023-01-07T13:57:57.396Z,19.61
2023-01-07T14:00:42.940Z,19.34
2023-01-07T14:03:28.493Z,19.08
2023-01-07T14:06:13.707Z,19.45
2023-01-07T14:08:40.082Z,19.88
2023-01-07T14:11:06.441Z,20.13
2023-01-07T14:13:33.756Z,20.17
2023-01-07T14:16:05.200Z,19.79
2023-01-07T14:18:44.605Z,19.95
2023-01-07T14:21:15.433Z,20.05
2023-01-07T14:24:05.089Z,20.07
2023-01-07T14:26:36.761Z,20.11
2023-01-07T14:29:15.119Z,20.12
2023-01-07T14:31:41.465Z,20.13
2023-01-07T14:34:08.587Z,20.08
2023-01-07T14:36:53.869Z,20.09
2023-01-07T14:39:29.578Z,20.07
2023-01-07T14:42:14.648Z,20.08
2023-01-07T14:44:40.985Z,20.06
2023-01-07T14:47:10.612Z,20.05
2023-01-07T14:49:43.135Z,20.04
2023-01-07T14:52:16.255Z,20.02
2023-01-07T14:55:05.284Z,20.04
2023-01-07T14:57:41.162Z,20.05
2023-01-07T15:00:32.557Z,20.01
2023-01-07T15:03:37.452Z,20.04
2023-01-07T15:06:06.637Z,20.03
2023-01-07T15:09:02.635Z,20.01
2023-01-07T15:11:47.764Z,19.97
2023-01-07T15:14:43.351Z,20.02
2023-01-07T15:17:11.297Z,20.11
2023-01-07T15:19:48.723Z,20.15
2023-01-07T15:22:38.778Z,20.17
2023-01-07T15:25:20.163Z,20.17
2023-01-07T15:27:49.496Z,20.23
2023-01-07T15:30:15.755Z,20.22
2023-01-07T15:32:42.023Z,20.21
2023-01-07T15:35:24.042Z,20.20
2023-01-07T15:37:53.429Z,20.20
2023-01-07T15:40:20.412Z,20.20
2023-01-07T15:42:47.094Z,20.19
2023-01-07T15:45:17.394Z,20.19
2023-01-07T15:47:43.756Z,19.59
2023-01-07T15:50:23.687Z,19.84
2023-01-07T15:52:50.493Z,20.01
2023-01-07T15:55:33.008Z,20.11
2023-01-07T15:58:06.111Z,20.15
2023-01-07T16:00:33.012Z,20.22
2023-01-07T16:02:59.365Z,20.29
2023-01-07T16:05:26.355Z,20.15
2023-01-07T16:07:56.695Z,19.67
2023-01-07T16:10:22.948Z,19.20
2023-01-07T16:13:21.461Z,19.33
2023-01-07T16:15:52.801Z,19.68
2023-01-07T16:18:19.194Z,19.88
2023-01-07T16:20:50.309Z,19.99
2023-01-07T16:23:18.192Z,20.05
2023-01-07T16:25:51.924Z,20.07
2023-01-07T16:28:22.051Z,20.09
2023-01-07T16:30:48.771Z,20.09
2023-01-07T16:33:16.086Z,20.12
2023-01-07T16:35:42.421Z,20.12
2023-01-07T16:38:08.781Z,20.17
2023-01-07T16:40:38.081Z,20.18
2023-01-07T16:43:04.722Z,20.18
2023-01-07T16:45:32.439Z,20.19
2023-01-07T16:48:02.633Z,20.20
2023-01-07T16:50:30.288Z,20.20
2023-01-07T16:52:56.714Z,20.20
2023-01-07T16:55:42.915Z,20.21
2023-01-07T16:58:15.870Z,20.22
2023-01-07T17:00:47.862Z,20.17
2023-01-07T17:03:14.203Z,20.19
2023-01-07T17:05:40.521Z,20.16
2023-01-07T17:08:07.746Z,20.21
2023-01-07T17:10:34.997Z,20.21
2023-01-07T17:13:27.654Z,20.21
2023-01-07T17:16:13.870Z,20.21
2023-01-07T17:18:40.254Z,20.21
2023-01-07T17:21:13.348Z,20.19
2023-01-07T17:23:40.838Z,20.21
2023-01-07T17:26:15.850Z,20.23
2023-01-07T17:28:49.601Z,20.26
2023-01-07T17:31:15.976Z,20.30
2023-01-07T17:34:13.772Z,20.07
2023-01-07T17:36:40.089Z,20.09
2023-01-07T17:39:06.491Z,20.15
2023-01-07T17:41:52.387Z,20.14
2023-01-07T17:44:18.704Z,20.12
2023-01-07T17:46:45.061Z,20.11
2023-01-07T17:49:11.518Z,20.13
2023-01-07T17:51:38.595Z,20.12
2023-01-07T17:54:06.652Z,20.09
2023-01-07T17:56:33.236Z,20.05
2023-01-07T17:58:59.559Z,20.04
2023-01-07T18:01:26.033Z,20.07
2023-01-07T18:03:52.577Z,20.09
2023-01-07T18:06:19.562Z,20.10
2023-01-07T18:08:46.314Z,20.11
2023-01-07T18:11:32.360Z,19.92
2023-01-07T18:13:58.715Z,19.74
2023-01-07T18:16:25.134Z,19.83
2023-01-07T18:18:51.498Z,19.85
2023-01-07T18:21:17.872Z,19.86
2023-01-07T18:23:45.877Z,19.90
2023-01-07T18:26:12.483Z,19.99
2023-01-07T18:28:41.724Z,20.06
2023-01-07T18:31:08.062Z,20.09
2023-01-07T18:33:35.326Z,20.11
2023-01-07T18:36:01.827Z,20.11
2023-01-07T18:38:28.250Z,20.14
2023-01-07T18:40:54.962Z,20.16
2023-01-07T18:43:21.335Z,20.16
2023-01-07T18:45:50.435Z,20.18
2023-01-07T18:48:17.263Z,20.17
2023-01-07T18:50:47.964Z,20.20
2023-01-07T18:53:14.498Z,20.21
2023-01-07T18:55:41.009Z,20.23
2023-01-07T18:58:07.758Z,20.22
2023-01-07T19:00:34.221Z,20.20
2023-01-07T19:03:00.695Z,20.20
2023-01-07T19:05:27.282Z,20.19
2023-01-07T19:07:55.323Z,20.20
2023-01-07T19:10:24.788Z,20.19
2023-01-07T19:12:51.294Z,20.19
2023-01-07T19:15:20.749Z,20.18
2023-01-07T19:17:47.084Z,20.18
2023-01-07T19:20:15.219Z,20.18
2023-01-07T19:22:41.690Z,20.17
2023-01-07T19:25:08.028Z,20.17
2023-01-07T19:27:49.435Z,20.17
2023-01-07T19:30:15.754Z,20.18
2023-01-07T19:32:42.130Z,20.18
2023-01-07T19:35:08.490Z,20.17
2023-01-07T19:37:38.099Z,20.19
2023-01-07T19:40:05.010Z,20.20
2023-01-07T19:42:31.807Z,20.20
2023-01-07T19:44:58.150Z,20.21
2023-01-07T19:47:27.623Z,20.20
2023-01-07T19:49:53.951Z,20.21
2023-01-07T19:52:20.337Z,20.21
2023-01-07T19:54:46.753Z,20.20
2023-01-07T19:57:13.107Z,20.19
2023-01-07T19:59:39.436Z,20.19
2023-01-07T20:02:05.915Z,20.19
2023-01-07T20:04:32.369Z,20.19
2023-01-07T20:07:01.700Z,20.20
2023-01-07T20:09:28.028Z,20.22
2023-01-07T20:11:54.340Z,20.22
2023-01-07T20:14:20.679Z,20.23
2023-01-07T20:16:47.123Z,20.24
2023-01-07T20:19:13.646Z,20.25
2023-01-07T20:21:42.980Z,20.25
2023-01-07T20:24:09.322Z,20.25
2023-01-07T20:26:36.515Z,20.25
2023-01-07T20:29:02.862Z,20.24
2023-01-07T20:31:29.678Z,20.25
2023-01-07T20:33:56.117Z,20.24
2023-01-07T20:36:26.934Z,20.23
2023-01-07T20:38:53.328Z,20.23
2023-01-07T20:41:20.503Z,20.25
2023-01-07T20:43:50.498Z,20.25
2023-01-07T20:46:16.877Z,20.27
2023-01-07T20:48:43.364Z,20.26
2023-01-07T20:51:09.711Z,20.29
2023-01-07T20:53:42.798Z,20.30
2023-01-07T20:56:12.513Z,20.28
2023-01-07T20:58:38.874Z,20.33
2023-01-07T21:01:09.065Z,20.34
2023-01-07T21:03:35.633Z,20.34
2023-01-07T21:06:01.966Z,20.34
2023-01-07T21:08:28.467Z,20.36
2023-01-07T21:10:54.797Z,20.38
2023-01-07T21:13:21.157Z,20.37
2023-01-07T21:15:47.481Z,20.35
2023-01-07T21:18:13.812Z,20.36
2023-01-07T21:20:40.356Z,20.34
2023-01-07T21:23:06.887Z,20.33
2023-01-07T21:25:33.214Z,20.35
2023-01-07T21:27:59.553Z,20.34
2023-01-07T21:30:28.177Z,20.33
2023-01-07T21:32:58.016Z,20.32
2023-01-07T21:35:24.363Z,20.32
2023-01-07T21:37:54.099Z,20.33
2023-01-07T21:40:20.611Z,20.33
2023-01-07T21:42:46.947Z,20.33
2023-01-07T21:45:19.786Z,20.32
2023-01-07T21:47:46.129Z,20.31
2023-01-07T21:50:14.911Z,20.30
2023-01-07T21:52:41.245Z,20.29
2023-01-07T21:55:07.952Z,20.29
2023-01-07T21:57:35.540Z,20.28
2023-01-07T22:00:01.883Z,20.28
2023-01-07T22:02:38.452Z,20.28
2023-01-07T22:05:04.896Z,20.29
2023-01-07T22:07:31.216Z,20.28
2023-01-07T22:09:57.547Z,20.28
2023-01-07T22:12:25.593Z,20.26
2023-01-07T22:14:51.939Z,20.26
2023-01-07T22:17:18.778Z,20.26
2023-01-07T22:19:45.113Z,20.25
2023-01-07T22:22:11.447Z,20.26
2023-01-07T22:24:37.842Z,20.26
2023-01-07T22:27:07.049Z,20.26
2023-01-07T22:29:33.940Z,20.27
2023-01-07T22:32:00.369Z,20.26
2023-01-07T22:34:26.691Z,20.26
2023-01-07T22:36:54.443Z,20.24
2023-01-07T22:39:31.355Z,20.25
2023-01-07T22:41:59.212Z,20.24
2023-01-07T22:44:55.135Z,20.24
2023-01-07T22:47:22.298Z,20.24
2023-01-07T22:49:48.623Z,20.22
2023-01-07T22:52:14.946Z,20.22
2023-01-07T22:54:43.980Z,20.22
2023-01-07T22:57:10.522Z,20.22
2023-01-07T22:59:39.726Z,20.21
2023-01-07T23:02:06.191Z,20.20
2023-01-07T23:04:32.576Z,20.19
2023-01-07T23:06:59.028Z,20.19
2023-01-07T23:09:25.371Z,20.19
2023-01-07T23:11:51.884Z,20.19
2023-01-07T23:14:18.853Z,20.18
2023-01-07T23:16:48.066Z,20.18
2023-01-07T23:19:14.478Z,20.19
2023-01-07T23:21:44.692Z,20.18
2023-01-07T23:24:14.321Z,20.18
2023-01-07T23:26:40.922Z,20.17
2023-01-07T23:29:07.262Z,20.17
2023-01-07T23:31:33.862Z,20.16
2023-01-07T23:34:00.410Z,20.15
2023-01-07T23:36:26.770Z,20.15
2023-01-07T23:38:53.169Z,20.14
2023-01-07T23:41:19.508Z,20.15
2023-01-07T23:43:45.846Z,20.13
2023-01-07T23:46:12.236Z,20.14
2023-01-07T23:48:44.676Z,20.12
2023-01-07T23:51:14.939Z,20.12
2023-01-07T23:53:41.275Z,20.14
2023-01-07T23:56:07.781Z,20.13
2023-01-07T23:58:34.188Z,20.15
